createdAt,value
2022-12-08T00:00:19.571Z,4.01
2022-12-08T00:03:44.578Z,3.44
2022-12-08T00:07:07.880Z,3.37
2022-12-08T00:10:46.577Z,3.23
2022-12-08T00:13:38.799Z,3.97
2022-12-08T00:16:44.336Z,4.28
2022-12-08T00:19:50.553Z,4.24
2022-12-08T00:22:55.851Z,4.74
2022-12-08T00:26:04.463Z,4.79
2022-12-08T00:29:14.480Z,4.40
2022-12-08T00:32:22.484Z,4.29
2022-12-08T00:35:27.828Z,4.48
2022-12-08T00:38:33.247Z,4.45
2022-12-08T00:41:56.097Z,4.94
2022-12-08T00:45:01.649Z,4.85
2022-12-08T00:48:07.622Z,4.30
2022-12-08T00:51:13.156Z,3.96
2022-12-08T00:54:18.477Z,4.22
2022-12-08T00:57:23.925Z,4.59
2022-12-08T01:00:29.518Z,5.19
2022-12-08T01:03:34.915Z,4.97
2022-12-08T01:06:40.696Z,3.95
2022-12-08T01:09:46.125Z,4.43
2022-12-08T01:12:51.457Z,4.38
2022-12-08T01:15:56.746Z,4.53
2022-12-08T01:19:02.379Z,4.51
2022-12-08T01:22:07.592Z,4.89
2022-12-08T01:25:13.580Z,5.34
2022-12-08T01:28:20.443Z,5.68
2022-12-08T01:31:25.919Z,5.24
2022-12-08T01:34:31.310Z,3.65
2022-12-08T01:37:36.779Z,2.52
2022-12-08T01:40:42.222Z,2.68
2022-12-08T01:43:57.462Z,3.92
2022-12-08T01:47:03.178Z,4.78
2022-12-08T01:50:11.628Z,5.29
2022-12-08T01:53:19.084Z,5.68
2022-12-08T01:56:29.061Z,5.89
2022-12-08T01:59:36.655Z,5.68
2022-12-08T02:02:47.751Z,4.26
2022-12-08T02:05:53.584Z,2.83
2022-12-08T02:08:59.194Z,2.15
2022-12-08T02:12:05.014Z,3.13
2022-12-08T02:15:11.200Z,4.12
2022-12-08T02:18:22.924Z,4.65
2022-12-08T02:21:30.387Z,5.06
2022-12-08T02:24:38.453Z,5.16
2022-12-08T02:27:49.160Z,5.51
2022-12-08T02:30:59.340Z,5.48
2022-12-08T02:34:09.745Z,4.30
2022-12-08T02:37:20.117Z,2.84
2022-12-08T02:40:29.791Z,3.07
2022-12-08T02:43:38.694Z,3.99
2022-12-08T02:46:46.375Z,4.58
2022-12-08T02:49:51.895Z,4.77
2022-12-08T02:52:57.629Z,5.04
2022-12-08T02:56:04.767Z,5.26
2022-12-08T02:59:16.225Z,5.38
2022-12-08T03:02:31.005Z,5.14
2022-12-08T03:05:48.026Z,3.49
2022-12-08T03:08:56.765Z,3.16
2022-12-08T03:12:06.040Z,4.13
2022-12-08T03:15:15.464Z,4.76
2022-12-08T03:18:24.776Z,5.21
2022-12-08T03:21:31.017Z,5.46
2022-12-08T03:24:38.053Z,5.69
2022-12-08T03:27:46.132Z,5.68
2022-12-08T03:30:53.919Z,4.09
2022-12-08T03:34:00.723Z,2.66
2022-12-08T03:37:06.129Z,1.68
2022-12-08T03:40:15.067Z,0.95
2022-12-08T03:43:20.427Z,0.39
2022-12-08T03:49:31.369Z,2.01
2022-12-08T03:52:39.170Z,3.53
2022-12-08T03:55:44.766Z,4.02
2022-12-08T03:58:50.013Z,4.37
2022-12-08T04:01:55.468Z,4.66
2022-12-08T04:05:01.254Z,5.00
2022-12-08T04:08:06.885Z,5.42
2022-12-08T04:11:12.570Z,5.94
2022-12-08T04:14:18.023Z,6.00
2022-12-08T04:17:23.290Z,4.57
2022-12-08T04:20:28.542Z,3.20
2022-12-08T04:23:33.962Z,2.24
2022-12-08T04:26:39.408Z,1.50
2022-12-08T04:29:44.626Z,0.92
2022-12-08T04:32:49.907Z,0.86
2022-12-08T04:35:55.225Z,2.42
2022-12-08T04:39:01.340Z,3.87
2022-12-08T04:42:06.800Z,4.91
2022-12-08T04:45:12.626Z,5.59
2022-12-08T04:48:17.879Z,6.18
2022-12-08T04:51:23.242Z,6.63
2022-12-08T04:54:28.786Z,5.82
2022-12-08T04:57:34.176Z,4.20
2022-12-08T05:00:39.584Z,3.01
2022-12-08T05:03:44.962Z,2.15
2022-12-08T05:06:50.324Z,2.41
2022-12-08T05:09:55.680Z,3.91
2022-12-08T05:13:01.622Z,4.91
2022-12-08T05:16:08.653Z,5.56
2022-12-08T05:19:14.828Z,6.06
2022-12-08T05:22:20.323Z,6.45
2022-12-08T05:25:25.694Z,5.94
2022-12-08T05:28:46.346Z,4.35
2022-12-08T05:31:51.755Z,3.03
2022-12-08T05:34:57.097Z,2.43
2022-12-08T05:38:02.471Z,3.51
2022-12-08T05:41:08.643Z,4.74
2022-12-08T05:44:14.052Z,5.48
2022-12-08T05:47:19.396Z,6.04
2022-12-08T05:50:24.860Z,6.42
2022-12-08T05:53:33.714Z,6.39
2022-12-08T05:56:39.076Z,4.95
2022-12-08T05:59:44.343Z,3.64
2022-12-08T06:02:49.742Z,2.71
2022-12-08T06:05:56.266Z,2.02
2022-12-08T06:09:02.853Z,1.50
2022-12-08T06:12:08.764Z,1.10
2022-12-08T06:15:14.146Z,0.79
2022-12-08T06:18:19.470Z,1.70
2022-12-08T06:21:24.862Z,3.39
2022-12-08T06:24:30.520Z,4.55
2022-12-08T06:27:36.048Z,5.39
2022-12-08T06:30:41.488Z,5.99
2022-12-08T06:33:47.452Z,6.50
2022-12-08T06:36:53.022Z,6.92
2022-12-08T06:39:58.486Z,7.21
2022-12-08T06:43:03.919Z,6.91
2022-12-08T06:46:10.198Z,5.40
2022-12-08T06:49:15.569Z,4.20
2022-12-08T06:52:20.959Z,3.37
2022-12-08T06:55:57.477Z,2.73
2022-12-08T06:58:52.982Z,2.18
2022-12-08T07:01:58.695Z,2.67
2022-12-08T07:05:04.598Z,4.25
2022-12-08T07:08:10.205Z,5.44
2022-12-08T07:11:21.204Z,6.20
2022-12-08T07:14:27.841Z,6.79
2022-12-08T07:17:33.419Z,7.13
2022-12-08T07:20:38.856Z,7.44
2022-12-08T07:23:46.108Z,7.75
2022-12-08T07:26:51.682Z,7.94
2022-12-08T07:29:57.098Z,8.02
2022-12-08T07:33:04.714Z,6.69
2022-12-08T07:36:10.757Z,5.16
2022-12-08T07:39:16.106Z,4.11
2022-12-08T07:42:21.646Z,4.48
2022-12-08T07:45:31.452Z,5.59
2022-12-08T07:48:37.638Z,6.35
2022-12-08T07:51:43.178Z,6.82
2022-12-08T07:54:48.599Z,7.19
2022-12-08T07:57:53.969Z,7.64
2022-12-08T08:00:59.487Z,7.98
2022-12-08T08:04:05.764Z,8.26
2022-12-08T08:07:12.863Z,8.47
2022-12-08T08:10:19.136Z,7.81
2022-12-08T08:13:24.579Z,6.14
2022-12-08T08:16:34.954Z,4.96
2022-12-08T08:19:43.777Z,4.09
2022-12-08T08:22:52.314Z,4.51
2022-12-08T08:26:02.622Z,5.82
2022-12-08T08:29:08.187Z,6.64
2022-12-08T08:32:13.696Z,7.13
2022-12-08T08:35:19.102Z,7.52
2022-12-08T08:38:25.180Z,7.71
2022-12-08T08:41:30.509Z,7.98
2022-12-08T08:44:37.555Z,8.26
2022-12-08T08:47:43.044Z,8.45
2022-12-08T08:50:48.513Z,8.63
2022-12-08T08:53:54.193Z,7.75
2022-12-08T08:57:00.484Z,6.23
2022-12-08T09:00:07.516Z,5.59
2022-12-08T09:03:13.919Z,6.76
2022-12-08T09:06:20.267Z,7.55
2022-12-08T09:09:25.743Z,7.93
2022-12-08T09:12:31.137Z,8.18
2022-12-08T09:15:36.497Z,8.49
2022-12-08T09:18:42.001Z,8.63
2022-12-08T09:21:49.878Z,8.80
2022-12-08T09:24:55.272Z,8.86
2022-12-08T09:28:00.654Z,8.97
2022-12-08T09:31:06.020Z,9.03
2022-12-08T09:34:13.310Z,8.56
2022-12-08T09:37:21.055Z,7.11
2022-12-08T09:40:27.990Z,7.24
2022-12-08T09:43:46.608Z,8.21
2022-12-08T09:46:53.469Z,8.83
2022-12-08T09:50:07.960Z,9.21
2022-12-08T09:53:17.120Z,9.32
2022-12-08T09:56:24.694Z,9.41
2022-12-08T09:59:33.137Z,8.06
2022-12-08T10:02:41.020Z,6.70
2022-12-08T10:05:48.362Z,7.21
2022-12-08T10:09:00.187Z,7.96
2022-12-08T10:12:11.266Z,8.52
2022-12-08T10:15:27.824Z,8.76
2022-12-08T10:18:35.155Z,9.11
2022-12-08T10:21:41.939Z,9.36
2022-12-08T10:24:52.443Z,9.25
2022-12-08T10:27:59.611Z,7.97
2022-12-08T10:31:05.660Z,6.99
2022-12-08T10:34:15.772Z,7.69
2022-12-08T10:37:21.393Z,8.48
2022-12-08T10:40:28.663Z,8.93
2022-12-08T10:43:34.244Z,9.16
2022-12-08T10:46:39.751Z,9.09
2022-12-08T10:49:48.116Z,9.17
2022-12-08T10:52:58.248Z,9.31
2022-12-08T10:56:16.131Z,9.27
2022-12-08T10:59:21.664Z,9.23
2022-12-08T11:02:27.165Z,9.16
2022-12-08T11:05:34.767Z,9.15
2022-12-08T11:08:47.732Z,9.10
2022-12-08T11:11:53.835Z,9.30
2022-12-08T11:15:03.367Z,9.39
2022-12-08T11:18:24.619Z,9.44
2022-12-08T11:21:35.895Z,9.17
2022-12-08T11:24:41.297Z,7.84
2022-12-08T11:27:48.674Z,7.40
2022-12-08T11:30:58.807Z,8.34
2022-12-08T11:34:07.897Z,8.95
2022-12-08T11:37:18.727Z,9.33
2022-12-08T11:40:26.478Z,9.61
2022-12-08T11:43:37.428Z,9.55
2022-12-08T11:46:44.987Z,9.77
2022-12-08T11:49:56.939Z,9.79
2022-12-08T11:53:02.854Z,8.55
2022-12-08T11:56:13.025Z,7.28
2022-12-08T11:59:21.024Z,7.70
2022-12-08T12:02:29.044Z,8.55
2022-12-08T12:09:12.981Z,8.94
2022-12-08T12:12:27.481Z,9.05
2022-12-08T12:15:49.746Z,9.27
2022-12-08T12:19:00.572Z,9.31
2022-12-08T12:22:13.533Z,9.31
2022-12-08T12:25:23.773Z,9.37
2022-12-08T12:28:30.676Z,9.54
2022-12-08T12:31:37.982Z,9.71
2022-12-08T12:34:49.676Z,9.88
2022-12-08T12:37:57.541Z,9.20
2022-12-08T12:41:04.070Z,8.30
2022-12-08T12:44:24.116Z,9.09
2022-12-08T12:47:43.182Z,9.94
2022-12-08T12:50:49.195Z,10.44
2022-12-08T12:53:54.722Z,10.44
2022-12-08T12:57:17.818Z,10.67
2022-12-08T13:00:24.932Z,9.64
2022-12-08T13:03:30.411Z,8.67
2022-12-08T13:06:41.573Z,9.43
2022-12-08T13:09:47.297Z,9.97
2022-12-08T13:13:07.243Z,10.30
2022-12-08T13:16:19.727Z,10.32
2022-12-08T13:19:25.926Z,10.31
2022-12-08T13:22:48.794Z,9.09
2022-12-08T13:26:09.352Z,8.24
2022-12-08T13:29:22.829Z,9.16
2022-12-08T13:33:16.787Z,9.55
2022-12-08T13:36:27.932Z,9.70
2022-12-08T13:39:38.169Z,9.67
2022-12-08T13:42:50.236Z,9.46
2022-12-08T13:59:55.134Z,8.69
2022-12-08T14:03:02.109Z,9.28
2022-12-08T14:06:12.931Z,9.83
2022-12-08T14:09:20.331Z,10.24
2022-12-08T14:12:27.670Z,9.55
2022-12-08T14:15:38.354Z,7.96
2022-12-08T14:18:44.219Z,6.78
2022-12-08T14:21:52.566Z,6.62
2022-12-08T14:25:00.459Z,7.94
2022-12-08T14:28:06.400Z,8.75
2022-12-08T14:31:15.066Z,9.17
2022-12-08T14:34:20.738Z,9.49
2022-12-08T14:37:28.239Z,9.89
2022-12-08T14:40:35.395Z,9.80
2022-12-08T14:43:43.118Z,8.42
2022-12-08T14:47:05.440Z,7.12
2022-12-08T14:50:26.503Z,6.42
2022-12-08T14:53:37.110Z,7.60
2022-12-08T14:56:48.723Z,8.66
2022-12-08T14:59:54.192Z,9.33
2022-12-08T15:03:07.042Z,9.73
2022-12-08T15:06:13.264Z,9.84
2022-12-08T15:09:28.929Z,8.61
2022-12-08T15:12:34.596Z,7.15
2022-12-08T15:15:50.378Z,6.15
2022-12-08T15:19:04.974Z,5.58
2022-12-08T15:22:18.818Z,6.73
2022-12-08T15:25:24.942Z,7.75
2022-12-08T15:28:30.840Z,8.26
2022-12-08T15:31:36.664Z,8.62
2022-12-08T15:34:42.179Z,8.93
2022-12-08T15:37:47.889Z,9.34
2022-12-08T15:40:53.804Z,9.66
2022-12-08T15:43:59.188Z,9.92
2022-12-08T15:47:04.665Z,9.34
2022-12-08T15:50:15.241Z,7.68
2022-12-08T15:53:20.964Z,6.37
2022-12-08T15:56:29.009Z,6.40
2022-12-08T15:59:37.080Z,7.81
2022-12-08T16:03:13.175Z,8.79
2022-12-08T16:09:40.398Z,9.63
2022-12-08T16:16:31.237Z,9.36
2022-12-08T16:19:37.096Z,7.88
2022-12-08T16:23:07.927Z,6.73
2022-12-08T16:29:37.302Z,8.73
2022-12-08T16:32:42.872Z,9.34
2022-12-08T16:35:48.463Z,9.68
2022-12-08T16:38:53.941Z,9.92
2022-12-08T16:42:16.766Z,10.05
2022-12-08T16:45:23.800Z,8.85
2022-12-08T16:48:29.517Z,7.39
2022-12-08T16:51:34.944Z,6.73
2022-12-08T16:54:40.401Z,7.78
2022-12-08T16:57:46.982Z,8.69
2022-12-08T17:00:52.888Z,9.27
2022-12-08T17:04:29.805Z,9.49
2022-12-08T17:07:23.954Z,9.80
2022-12-08T17:10:31.722Z,8.99
2022-12-08T17:13:37.596Z,7.46
2022-12-08T17:16:43.501Z,7.32
2022-12-08T17:19:49.102Z,8.55
2022-12-08T17:22:55.945Z,9.39
2022-12-08T17:26:02.019Z,9.83
2022-12-08T17:29:07.473Z,9.47
2022-12-08T17:32:13.207Z,7.94
2022-12-08T17:35:19.703Z,7.08
2022-12-08T17:38:25.299Z,8.04
2022-12-08T17:41:31.206Z,8.91
2022-12-08T17:44:36.763Z,9.50
2022-12-08T17:47:42.194Z,9.79
2022-12-08T17:50:47.902Z,8.74
2022-12-08T17:53:53.054Z,7.19
2022-12-08T17:56:59.149Z,7.04
2022-12-08T18:00:05.625Z,8.30
2022-12-08T18:03:17.354Z,9.12
2022-12-08T18:06:25.691Z,9.70
2022-12-08T18:09:33.835Z,10.06
2022-12-08T18:12:39.487Z,8.88
2022-12-08T18:15:45.435Z,7.34
2022-12-08T18:18:51.305Z,7.04
2022-12-08T18:21:56.587Z,8.33
2022-12-08T18:25:02.026Z,9.34
2022-12-08T18:28:07.598Z,9.32
2022-12-08T18:31:14.608Z,8.13
2022-12-08T18:34:20.116Z,6.74
2022-12-08T18:37:25.602Z,6.96
2022-12-08T18:40:32.450Z,8.30
2022-12-08T18:43:38.388Z,8.86
2022-12-08T18:46:44.320Z,9.53
2022-12-08T18:49:49.687Z,9.02
2022-12-08T18:52:55.346Z,7.42
2022-12-08T18:56:00.674Z,6.31
2022-12-08T18:59:07.239Z,7.28
2022-12-08T19:02:13.009Z,8.49
2022-12-08T19:05:18.646Z,9.27
2022-12-08T19:08:29.714Z,9.84
2022-12-08T19:11:39.148Z,9.26
2022-12-08T19:14:44.638Z,7.70
2022-12-08T19:17:50.150Z,6.59
2022-12-08T19:20:56.990Z,5.81
2022-12-08T19:24:03.898Z,5.23
2022-12-08T19:27:09.213Z,5.24
2022-12-08T19:30:16.634Z,6.78
2022-12-08T19:33:22.454Z,8.46
2022-12-08T19:36:30.734Z,9.67
2022-12-08T19:39:54.227Z,9.98
2022-12-08T19:43:17.314Z,8.24
2022-12-08T19:46:22.834Z,7.15
2022-12-08T19:49:31.069Z,7.64
2022-12-08T19:52:36.721Z,7.70
2022-12-08T19:55:42.903Z,7.86
2022-12-08T19:58:48.424Z,8.24
2022-12-08T20:01:55.995Z,7.84
2022-12-08T20:05:02.122Z,7.07
2022-12-08T20:08:08.510Z,7.10
2022-12-08T20:11:14.035Z,7.76
2022-12-08T20:14:19.556Z,7.55
2022-12-08T20:17:25.047Z,8.00
2022-12-08T20:20:30.498Z,8.43
2022-12-08T20:23:36.241Z,7.56
2022-12-08T20:26:41.592Z,7.66
2022-12-08T20:29:46.843Z,7.44
2022-12-08T20:32:52.470Z,7.35
2022-12-08T20:36:01.439Z,7.47
2022-12-08T20:39:10.239Z,8.26
2022-12-08T20:42:15.811Z,8.68
2022-12-08T20:45:23.450Z,7.74
2022-12-08T20:48:28.903Z,6.29
2022-12-08T20:51:34.644Z,5.29
2022-12-08T20:54:40.079Z,4.55
2022-12-08T20:57:45.521Z,4.01
2022-12-08T21:00:51.510Z,3.60
2022-12-08T21:03:57.242Z,3.26
2022-12-08T21:07:03.153Z,2.96
2022-12-08T21:10:10.264Z,2.70
2022-12-08T21:13:16.764Z,2.45
2022-12-08T21:16:22.171Z,2.23
2022-12-08T21:19:27.553Z,2.05
2022-12-08T21:22:33.079Z,1.89
2022-12-08T21:25:42.332Z,1.84
2022-12-08T21:28:58.909Z,3.52
2022-12-08T21:32:04.366Z,5.36
2022-12-08T21:35:10.850Z,6.46
2022-12-08T21:38:16.463Z,7.21
2022-12-08T21:41:42.969Z,7.83
2022-12-08T21:44:48.582Z,8.36
2022-12-08T21:47:54.952Z,8.76
2022-12-08T21:51:04.462Z,8.98
2022-12-08T21:54:15.016Z,7.81
2022-12-08T21:57:24.634Z,6.41
2022-12-08T22:00:29.952Z,5.45
2022-12-08T22:03:35.340Z,4.72
2022-12-08T22:06:41.223Z,4.16
2022-12-08T22:09:47.405Z,3.69
2022-12-08T22:12:54.273Z,3.28
2022-12-08T22:16:00.597Z,2.95
2022-12-08T22:19:06.416Z,2.64
2022-12-08T22:22:12.128Z,2.39
2022-12-08T22:25:18.889Z,2.44
2022-12-08T22:28:24.612Z,3.92
2022-12-08T22:31:30.148Z,5.37
2022-12-08T22:34:35.856Z,6.25
2022-12-08T22:37:41.889Z,6.92
2022-12-08T22:40:47.620Z,7.63
2022-12-08T22:43:52.894Z,8.29
2022-12-08T22:46:58.403Z,8.79
2022-12-08T22:50:04.491Z,9.20
2022-12-08T22:53:10.958Z,8.81
2022-12-08T22:56:16.684Z,7.34
2022-12-08T22:59:22.168Z,6.19
2022-12-08T23:02:27.788Z,5.37
2022-12-08T23:05:35.112Z,4.75
2022-12-08T23:08:41.046Z,5.09
2022-12-08T23:11:46.502Z,6.68
2022-12-08T23:14:52.209Z,7.73
2022-12-08T23:17:58.013Z,8.65
2022-12-08T23:21:05.714Z,9.30
2022-12-08T23:24:11.317Z,8.96
2022-12-08T23:27:16.662Z,7.40
2022-12-08T23:30:26.175Z,6.20
2022-12-08T23:33:31.884Z,5.42
2022-12-08T23:36:38.074Z,5.95
2022-12-08T23:39:44.086Z,6.88
2022-12-08T23:42:50.082Z,7.61
2022-12-08T23:45:56.089Z,8.27
2022-12-08T23:49:02.363Z,8.72
2022-12-08T23:52:08.336Z,9.15
2022-12-08T23:55:14.118Z,9.05
2022-12-08T23:58:19.556Z,7.57
